Time;durP1;ratioP1;P1;durP2;ratioP2;P2;SDS_P1;SDS_P2;PMS_P1;PMS_P2;Temp;Humidity;BMP_temperature;BMP_pressure;BME280_temperature;BME280_humidity;BME280_pressure;Samples;Min_cycle;Max_cycle;Signal;HPM_P1;HPM_P2
2021/12/18 15:50:51;;;;;;;;;9.50;8.50;;;;;;;;5216040;27;78695;-77
2021/12/18 15:53:16;;;;;;;;;8.00;8.00;;;;;;;;5198252;27;21754;-75
2021/12/18 15:55:42;;;;;;;;;9.00;7.00;;;;;;;;5198619;27;11650;-75
2021/12/18 15:58:07;;;;;;;;;8.25;7.25;;;;;;;;5199520;27;8912;-76
2021/12/18 16:00:34;;;;;;;;;6.50;6.50;;;;;;;;5180380;27;13280;-76
2021/12/18 16:02:59;;;;;;;;;7.50;7.50;;;;;;;;5199090;27;11571;-76
2021/12/18 16:05:26;;;;;;;;;8.75;6.50;;;;;;;;5199393;27;11526;-75
2021/12/18 16:07:52;;;;;;;;;7.50;5.25;;;;;;;;5178652;27;12990;-75
2021/12/18 16:10:18;;;;;;;;;9.75;7.00;;;;;;;;5199334;27;11670;-75
2021/12/18 16:12:44;;;;;;;;;6.50;6.00;;;;;;;;5199063;27;11418;-76
2021/12/18 16:15:10;;;;;;;;;8.75;8.75;;;;;;;;5198713;27;11599;-74
2021/12/18 16:17:35;;;;;;;;;9.75;8.75;;;;;;;;5198628;27;11358;-80
2021/12/18 16:20:00;;;;;;;;;8.00;8.00;;;;;;;;5198418;27;8772;-74
2021/12/18 16:22:26;;;;;;;;;8.75;8.00;;;;;;;;5198683;27;11308;-79
2021/12/18 16:24:51;;;;;;;;;10.25;8.00;;;;;;;;5198540;27;8784;-72
2021/12/18 16:27:17;;;;;;;;;10.00;9.50;;;;;;;;5198724;27;16442;-71
2021/12/18 16:29:43;;;;;;;;;5.00;5.00;;;;;;;;5198440;27;10467;-73
2021/12/18 16:32:08;;;;;;;;;10.00;8.25;;;;;;;;5198714;27;21883;-71
2021/12/18 16:34:33;;;;;;;;;12.75;11.00;;;;;;;;5197285;27;21365;-72
2021/12/18 16:37:05;;;;;;;;;7.75;5.75;;;;;;;;5173698;27;23539;-71
2021/12/18 16:39:30;;;;;;;;;6.50;4.25;;;;;;;;5177739;27;22653;-72
2021/12/18 16:41:56;;;;;;;;;10.75;10.75;;;;;;;;5199804;27;11429;-72
2021/12/18 16:44:21;;;;;;;;;11.00;8.00;;;;;;;;5198529;27;22359;-72
2021/12/18 16:46:46;;;;;;;;;11.00;10.00;;;;;;;;5199075;27;22660;-71
2021/12/18 16:49:12;;;;;;;;;12.00;11.50;;;;;;;;5198327;27;16380;-70
2021/12/18 16:51:37;;;;;;;;;12.00;10.50;;;;;;;;5199006;27;11527;-74
2021/12/18 16:54:03;;;;;;;;;9.50;9.50;;;;;;;;5198600;27;8852;-71
2021/12/18 16:56:28;;;;;;;;;15.00;11.50;;;;;;;;5198766;27;22178;-70
2021/12/18 16:58:53;;;;;;;;;9.75;9.75;;;;;;;;5198850;27;22258;-81
2021/12/18 17:01:19;;;;;;;;;14.00;12.00;;;;;;;;5170452;27;24461;-80
2021/12/18 17:03:45;;;;;;;;;15.75;15.50;;;;;;;;5181221;27;22573;-78
2021/12/18 17:06:11;;;;;;;;;15.75;15.25;;;;;;;;5182769;27;11936;-78
2021/12/18 17:08:36;;;;;;;;;20.75;19.25;;;;;;;;5184390;27;11603;-76
2021/12/18 17:11:02;;;;;;;;;18.75;18.00;;;;;;;;5184397;27;10394;-78
2021/12/18 17:13:27;;;;;;;;;25.50;24.75;;;;;;;;5183965;27;13391;-77
2021/12/18 17:15:53;;;;;;;;;44.00;38.33;;;;;;;;5184448;27;13209;-78
2021/12/18 17:18:18;;;;;;;;;16.00;15.75;;;;;;;;5182610;27;12337;-79
2021/12/18 17:20:44;;;;;;;;;14.25;14.00;;;;;;;;5183117;27;12177;-79
2021/12/18 17:23:09;;;;;;;;;13.00;11.25;;;;;;;;5164501;27;11833;-77
2021/12/18 17:25:34;;;;;;;;;20.50;16.50;;;;;;;;5183262;27;11914;-76
2021/12/18 17:28:00;;;;;;;;;15.25;15.25;;;;;;;;5163829;27;13635;-79
2021/12/18 17:30:27;;;;;;;;;13.75;13.75;;;;;;;;5177657;27;13691;-78
2021/12/18 17:32:52;;;;;;;;;20.25;16.50;;;;;;;;5161238;27;10803;-78
2021/12/18 17:35:18;;;;;;;;;15.75;15.75;;;;;;;;5182401;27;13205;-79
2021/12/18 17:37:43;;;;;;;;;28.50;27.50;;;;;;;;5183540;27;13348;-79
2021/12/18 17:40:10;;;;;;;;;21.00;20.50;;;;;;;;5164405;27;13913;-78
2021/12/18 17:42:36;;;;;;;;;26.00;23.50;;;;;;;;5183483;27;10486;-78
2021/12/18 17:45:02;;;;;;;;;33.00;25.00;;;;;;;;5182523;27;11522;-77
2021/12/18 17:47:27;;;;;;;;;29.00;26.00;;;;;;;;5182330;27;14662;-78
2021/12/18 17:49:55;;;;;;;;;31.33;31.33;;;;;;;;5182505;27;11548;-78
2021/12/18 17:52:20;;;;;;;;;22.25;21.00;;;;;;;;5182381;27;13418;-77
2021/12/18 17:54:46;;;;;;;;;16.00;16.00;;;;;;;;5181770;27;14688;-78
2021/12/18 17:57:11;;;;;;;;;12.75;11.50;;;;;;;;5175578;27;12209;-79
2021/12/18 17:59:36;;;;;;;;;11.00;9.67;;;;;;;;5183866;27;11529;-77
2021/12/18 18:02:02;;;;;;;;;20.75;18.75;;;;;;;;5183828;27;21634;-77
2021/12/18 18:04:28;;;;;;;;;19.50;17.75;;;;;;;;5183727;27;22605;-76
2021/12/18 18:06:53;;;;;;;;;20.00;18.25;;;;;;;;5183119;27;12252;-75
2021/12/18 18:09:18;;;;;;;;;23.50;21.75;;;;;;;;5181908;27;12443;-75
2021/12/18 18:11:44;;;;;;;;;18.75;15.00;;;;;;;;5182924;27;11574;-75
2021/12/18 18:14:10;;;;;;;;;20.75;19.75;;;;;;;;5182548;27;13378;-75
2021/12/18 18:16:35;;;;;;;;;27.00;22.00;;;;;;;;5183386;27;13280;-76
2021/12/18 18:19:01;;;;;;;;;20.00;16.25;;;;;;;;5183463;27;12265;-76
2021/12/18 18:21:26;;;;;;;;;21.75;21.00;;;;;;;;5184060;27;12409;-75
2021/12/18 18:23:51;;;;;;;;;16.25;15.50;;;;;;;;5184308;27;12755;-76
2021/12/18 18:26:17;;;;;;;;;17.25;15.00;;;;;;;;5177831;27;13185;-76
2021/12/18 18:28:43;;;;;;;;;19.50;19.00;;;;;;;;5171708;27;11431;-76
2021/12/18 18:31:09;;;;;;;;;16.25;14.50;;;;;;;;5153962;27;12586;-74
2021/12/18 18:33:36;;;;;;;;;18.00;17.00;;;;;;;;5176732;27;11645;-74
2021/12/18 18:36:02;;;;;;;;;15.50;13.25;;;;;;;;5178778;27;11611;-75
2021/12/18 18:38:27;;;;;;;;;14.00;13.75;;;;;;;;5172380;27;11607;-76
2021/12/18 18:40:53;;;;;;;;;11.25;11.25;;;;;;;;5173147;27;10430;-76
2021/12/18 18:43:28;;;;;;;;;14.75;13.50;;;;;;;;5171158;27;10384;-78
2021/12/18 18:46:05;;;;;;;;;15.50;14.00;;;;;;;;5177321;27;11682;-76
2021/12/18 18:48:33;;;;;;;;;13.50;12.50;;;;;;;;5178686;27;11752;-76
2021/12/18 18:50:58;;;;;;;;;14.25;13.50;;;;;;;;5180540;27;11563;-78
2021/12/18 18:53:24;;;;;;;;;9.25;9.00;;;;;;;;5171715;27;11488;-77
2021/12/18 18:55:49;;;;;;;;;19.00;15.00;;;;;;;;5180093;27;22260;-77
2021/12/18 18:58:14;;;;;;;;;21.00;19.00;;;;;;;;5179592;27;22433;-77
2021/12/18 19:00:40;;;;;;;;;26.33;24.67;;;;;;;;5180109;27;10367;-77
2021/12/18 19:03:05;;;;;;;;;34.33;31.67;;;;;;;;5173453;27;12711;-76
2021/12/18 19:05:32;;;;;;;;;43.00;37.00;;;;;;;;5175696;27;10868;-77
2021/12/18 19:07:57;;;;;;;;;39.67;35.67;;;;;;;;5175331;27;13384;-79
2021/12/18 19:10:22;;;;;;;;;33.33;29.33;;;;;;;;5165483;27;13485;-75
2021/12/18 19:12:48;;;;;;;;;44.00;39.00;;;;;;;;5169413;27;13565;-75
2021/12/18 19:15:14;;;;;;;;;49.33;39.33;;;;;;;;5170255;27;13779;-75
2021/12/18 19:17:40;;;;;;;;;52.33;46.00;;;;;;;;5160670;27;11543;-77
2021/12/18 19:20:12;;;;;;;;;42.67;41.33;;;;;;;;5161678;27;13628;-76
2021/12/18 19:22:40;;;;;;;;;45.67;38.00;;;;;;;;5161256;27;13543;-76
2021/12/18 19:25:06;;;;;;;;;47.00;41.67;;;;;;;;5161812;27;12460;-78
2021/12/18 19:27:35;;;;;;;;;50.00;43.33;;;;;;;;5161587;27;12283;-75
2021/12/18 19:30:02;;;;;;;;;60.67;45.67;;;;;;;;5181104;27;14056;-76
2021/12/18 19:32:27;;;;;;;;;49.00;43.33;;;;;;;;5172442;27;13359;-72
2021/12/18 19:34:54;;;;;;;;;53.33;42.67;;;;;;;;5169612;27;13434;-76
2021/12/18 19:37:20;;;;;;;;;51.33;45.00;;;;;;;;5169086;27;13492;-78
2021/12/18 19:39:46;;;;;;;;;50.33;45.00;;;;;;;;5169888;27;11386;-77
2021/12/18 19:42:11;;;;;;;;;58.00;46.00;;;;;;;;5178195;27;8818;-79
2021/12/18 19:44:36;;;;;;;;;55.00;47.00;;;;;;;;5181773;27;10370;-89
2021/12/18 19:47:02;;;;;;;;;64.00;49.33;;;;;;;;5179270;27;8934;-78
2021/12/18 19:49:27;;;;;;;;;53.67;47.33;;;;;;;;5180731;27;14607;-75
2021/12/18 19:51:54;;;;;;;;;55.33;44.33;;;;;;;;5180693;27;13697;-73
2021/12/18 19:54:19;;;;;;;;;64.75;51.00;;;;;;;;5177808;27;10479;-74
2021/12/18 19:56:44;;;;;;;;;57.00;44.67;;;;;;;;5170025;27;13232;-73
2021/12/18 19:59:10;;;;;;;;;42.67;41.67;;;;;;;;5180444;27;13294;-72
2021/12/18 20:01:36;;;;;;;;;65.25;52.25;;;;;;;;5180850;27;12342;-76
2021/12/18 20:06:45;;;;;;;;;57.75;48.50;;;;;;;;5180010;27;11406;-81
2021/12/18 20:09:10;;;;;;;;;52.25;44.25;;;;;;;;5180459;27;13636;-79
2021/12/18 20:11:35;;;;;;;;;41.00;36.33;;;;;;;;5180756;27;11912;-80
2021/12/18 20:14:02;;;;;;;;;50.00;43.67;;;;;;;;5180085;27;12582;-77
2021/12/18 20:16:27;;;;;;;;;54.75;46.25;;;;;;;;5179782;27;13599;-78
2021/12/18 20:18:52;;;;;;;;;40.33;39.00;;;;;;;;5179230;27;11376;-80
2021/12/18 20:21:18;;;;;;;;;42.00;36.00;;;;;;;;5180944;27;14481;-77
2021/12/18 20:23:43;;;;;;;;;39.33;32.00;;;;;;;;5171840;27;10553;-77
2021/12/18 20:26:08;;;;;;;;;42.67;36.67;;;;;;;;5180646;27;12190;-79
2021/12/18 20:28:34;;;;;;;;;42.67;33.00;;;;;;;;5181587;27;14615;-78
2021/12/18 20:31:01;;;;;;;;;37.33;29.00;;;;;;;;5169260;27;8872;-76
2021/12/18 20:33:28;;;;;;;;;32.67;30.00;;;;;;;;5180558;27;13514;-77
2021/12/18 20:35:57;;;;;;;;;38.00;35.00;;;;;;;;5182710;27;12093;-75
2021/12/18 20:38:23;;;;;;;;;39.33;37.67;;;;;;;;5185542;27;10600;-77
2021/12/18 20:40:48;;;;;;;;;40.33;37.00;;;;;;;;5185754;27;12681;-76
2021/12/18 20:43:13;;;;;;;;;45.33;41.33;;;;;;;;5185531;27;13464;-77
2021/12/18 20:45:39;;;;;;;;;39.67;34.33;;;;;;;;5184906;27;12194;-77
2021/12/18 20:48:05;;;;;;;;;39.33;35.00;;;;;;;;5184628;27;12404;-79
2021/12/18 20:50:30;;;;;;;;;35.67;32.33;;;;;;;;5184604;27;10483;-77
2021/12/18 20:52:57;;;;;;;;;43.00;37.67;;;;;;;;5185585;27;11422;-75
2021/12/18 20:55:23;;;;;;;;;39.67;35.67;;;;;;;;5184801;27;13497;-81
2021/12/18 20:57:50;;;;;;;;;41.00;33.00;;;;;;;;5183849;27;12417;-80
2021/12/18 21:00:21;;;;;;;;;40.33;36.33;;;;;;;;5185032;27;13471;-79
2021/12/18 21:02:46;;;;;;;;;39.00;35.67;;;;;;;;5166163;27;13581;-77
2021/12/18 21:05:12;;;;;;;;;39.00;34.00;;;;;;;;5185446;27;13424;-76
2021/12/18 21:07:58;;;;;;;;;47.00;37.67;;;;;;;;5165891;27;9310;-73
2021/12/18 21:10:25;;;;;;;;;34.33;32.67;;;;;;;;5184490;27;13665;-76
2021/12/18 21:12:50;;;;;;;;;44.33;42.00;;;;;;;;5184322;27;12318;-75
2021/12/18 21:15:16;;;;;;;;;38.33;30.67;;;;;;;;5184665;27;13453;-75
2021/12/18 21:17:42;;;;;;;;;48.67;44.67;;;;;;;;5184584;27;13469;-76
2021/12/18 21:20:08;;;;;;;;;51.00;40.67;;;;;;;;5184591;27;12457;-74
2021/12/18 21:22:34;;;;;;;;;48.00;42.33;;;;;;;;5177300;27;12862;-76
2021/12/18 21:24:59;;;;;;;;;41.67;34.00;;;;;;;;5167536;27;13247;-76
2021/12/18 21:27:25;;;;;;;;;43.67;41.00;;;;;;;;5163108;27;12528;-77
2021/12/18 21:29:50;;;;;;;;;46.33;40.67;;;;;;;;5162664;27;10056;-76
2021/12/18 21:32:16;;;;;;;;;41.33;38.67;;;;;;;;5163555;27;11499;-77
2021/12/18 21:37:13;;;;;;;;;42.00;41.00;;;;;;;;5184079;27;12281;-76
2021/12/18 21:39:38;;;;;;;;;47.75;43.25;;;;;;;;5183767;27;13274;-76
2021/12/18 21:42:04;;;;;;;;;55.00;42.00;;;;;;;;5165244;27;11723;-77
2021/12/18 21:44:30;;;;;;;;;53.00;44.00;;;;;;;;5183845;27;13310;-77
2021/12/18 21:46:56;;;;;;;;;51.75;43.75;;;;;;;;5184554;27;8888;-76
2021/12/18 21:49:21;;;;;;;;;57.00;47.75;;;;;;;;5183990;27;11959;-73
2021/12/18 21:51:46;;;;;;;;;46.00;42.67;;;;;;;;5184519;27;10584;-75
2021/12/18 21:54:13;;;;;;;;;48.00;42.00;;;;;;;;5184094;27;13218;-76
2021/12/18 21:56:39;;;;;;;;;48.33;42.00;;;;;;;;5177333;27;11497;-77
2021/12/18 21:59:05;;;;;;;;;38.67;37.33;;;;;;;;5168792;27;8881;-76
2021/12/18 22:01:30;;;;;;;;;41.67;40.33;;;;;;;;5171526;27;13507;-77
2021/12/18 22:04:01;;;;;;;;;32.00;32.00;;;;;;;;5183609;27;10513;-77
2021/12/18 22:06:26;;;;;;;;;30.33;27.67;;;;;;;;5183633;27;13358;-76
2021/12/18 22:08:51;;;;;;;;;30.33;26.00;;;;;;;;5183663;27;13497;-77
2021/12/18 22:11:18;;;;;;;;;43.00;36.00;;;;;;;;5184150;27;8872;-77
2021/12/18 22:13:44;;;;;;;;;38.00;32.33;;;;;;;;5182856;27;13583;-78
2021/12/18 22:16:09;;;;;;;;;51.67;45.33;;;;;;;;5183367;27;13292;-77
2021/12/18 22:18:35;;;;;;;;;48.75;42.25;;;;;;;;5164255;27;12175;-78
2021/12/18 22:21:00;;;;;;;;;50.00;42.67;;;;;;;;5162398;27;12203;-79
2021/12/18 22:23:25;;;;;;;;;45.00;41.00;;;;;;;;5163213;27;14660;-78
2021/12/18 22:25:50;;;;;;;;;47.00;42.50;;;;;;;;5143595;27;13737;-77
2021/12/18 22:28:16;;;;;;;;;46.75;41.00;;;;;;;;5162921;27;11478;-75
2021/12/18 22:30:44;;;;;;;;;41.33;36.33;;;;;;;;5162702;27;11380;-80
2021/12/18 22:33:09;;;;;;;;;41.00;37.00;;;;;;;;5162388;27;12273;-74
2021/12/18 22:35:34;;;;;;;;;43.67;39.67;;;;;;;;5161954;27;10866;-74
2021/12/18 22:38:00;;;;;;;;;43.67;37.33;;;;;;;;5162568;27;11353;-74
2021/12/18 22:40:25;;;;;;;;;41.67;36.33;;;;;;;;5162732;27;8872;-74
2021/12/18 22:42:52;;;;;;;;;42.33;36.33;;;;;;;;5143208;27;8833;-74
2021/12/18 22:45:18;;;;;;;;;46.75;41.50;;;;;;;;5162560;27;9684;-73
2021/12/18 22:47:48;;;;;;;;;41.67;34.67;;;;;;;;5161062;27;12365;-74
2021/12/18 22:50:16;;;;;;;;;44.00;36.33;;;;;;;;5161773;27;12432;-73
2021/12/18 22:52:41;;;;;;;;;39.33;32.67;;;;;;;;5162085;27;11819;-74
2021/12/18 22:55:06;;;;;;;;;38.67;31.33;;;;;;;;5161778;27;13575;-74
2021/12/18 22:57:32;;;;;;;;;42.33;33.67;;;;;;;;5142590;27;14653;-74
2021/12/18 22:59:58;;;;;;;;;39.33;33.00;;;;;;;;5161272;27;13220;-74
2021/12/18 23:02:23;;;;;;;;;33.00;28.33;;;;;;;;5161533;27;13321;-76
2021/12/18 23:04:49;;;;;;;;;35.33;33.00;;;;;;;;5142731;27;14508;-75
2021/12/18 23:07:14;;;;;;;;;33.00;31.33;;;;;;;;5162075;27;12210;-75
2021/12/18 23:09:40;;;;;;;;;35.00;29.00;;;;;;;;5161104;27;11567;-76
2021/12/18 23:12:19;;;;;;;;;23.67;21.00;;;;;;;;5161710;27;13370;-75
2021/12/18 23:15:07;;;;;;;;;25.00;23.67;;;;;;;;5143073;27;13092;-77
2021/12/18 23:17:52;;;;;;;;;37.67;35.00;;;;;;;;5162414;27;11460;-75
2021/12/18 23:22:43;;;;;;;;;40.00;33.00;;;;;;;;5162080;27;8759;-76
2021/12/18 23:25:09;;;;;;;;;31.67;27.33;;;;;;;;5162363;27;10510;-76
2021/12/18 23:27:35;;;;;;;;;35.00;32.67;;;;;;;;5161949;27;13293;-75
2021/12/18 23:30:00;;;;;;;;;33.00;30.00;;;;;;;;5142902;27;14255;-75
2021/12/18 23:32:25;;;;;;;;;30.67;28.67;;;;;;;;5161562;27;11367;-74
2021/12/18 23:34:51;;;;;;;;;34.33;29.00;;;;;;;;5161619;27;12189;-75
2021/12/18 23:37:16;;;;;;;;;41.75;36.75;;;;;;;;5161187;27;11444;-74
2021/12/18 23:39:44;;;;;;;;;36.00;32.33;;;;;;;;5161667;27;13438;-74
2021/12/18 23:42:10;;;;;;;;;34.33;30.67;;;;;;;;5161616;27;12347;-75
2021/12/18 23:47:21;;;;;;;;;34.00;30.33;;;;;;;;5161695;27;11527;-75
2021/12/18 23:49:47;;;;;;;;;33.67;30.67;;;;;;;;5160098;27;12286;-75
2021/12/18 23:52:12;;;;;;;;;28.33;26.67;;;;;;;;5162049;27;11505;-75
2021/12/18 23:54:38;;;;;;;;;24.67;24.67;;;;;;;;5161975;27;13563;-75
2021/12/18 23:57:04;;;;;;;;;33.00;26.67;;;;;;;;5161353;27;10546;-75
2021/12/18 23:59:29;;;;;;;;;32.67;31.33;;;;;;;;5161396;27;12467;-76
